createdAt,value
2023-01-07T00:01:00.748Z,14.60
2023-01-07T00:03:27.511Z,14.90
2023-01-07T00:05:58.431Z,15.87
2023-01-07T00:08:24.964Z,16.57
2023-01-07T00:10:51.549Z,16.37
2023-01-07T00:13:18.055Z,16.23
2023-01-07T00:15:44.632Z,16.27
2023-01-07T00:18:11.324Z,16.80
2023-01-07T00:20:37.878Z,16.70
2023-01-07T00:23:04.429Z,15.70
2023-01-07T00:25:31.485Z,17.57
2023-01-07T00:27:58.011Z,16.70
2023-01-07T00:30:24.519Z,16.90
2023-01-07T00:33:05.331Z,16.77
2023-01-07T00:35:32.523Z,15.73
2023-01-07T00:37:59.109Z,16.37
2023-01-07T00:40:25.855Z,15.53
2023-01-07T00:42:55.609Z,14.73
2023-01-07T00:45:22.543Z,15.33
2023-01-07T00:47:49.240Z,14.67
2023-01-07T00:50:15.804Z,13.07
2023-01-07T00:52:42.319Z,14.20
2023-01-07T00:55:11.270Z,15.60
2023-01-07T00:57:37.764Z,15.10
2023-01-07T01:00:04.458Z,14.93
2023-01-07T01:02:31.001Z,15.07
2023-01-07T01:04:57.587Z,16.63
2023-01-07T01:07:24.079Z,15.33
2023-01-07T01:09:50.684Z,15.90
2023-01-07T01:12:17.194Z,16.37
2023-01-07T01:14:43.828Z,16.27
2023-01-07T01:17:10.372Z,16.37
2023-01-07T01:19:36.846Z,15.43
2023-01-07T01:22:03.419Z,15.23
2023-01-07T01:24:29.966Z,15.87
2023-01-07T01:26:56.495Z,15.13
2023-01-07T01:29:23.029Z,15.13
2023-01-07T01:31:50.321Z,16.30
2023-01-07T01:34:16.932Z,14.90
2023-01-07T01:36:43.454Z,15.87
2023-01-07T01:39:10.099Z,13.67
2023-01-07T01:41:36.672Z,15.53
2023-01-07T01:44:23.135Z,13.67
2023-01-07T01:46:49.724Z,15.00
2023-01-07T01:49:22.375Z,14.60
2023-01-07T01:51:57.308Z,14.30
2023-01-07T01:54:23.916Z,15.57
2023-01-07T01:56:50.437Z,16.43
2023-01-07T01:59:24.399Z,15.63
2023-01-07T02:01:51.127Z,16.53
2023-01-07T02:04:18.620Z,15.60
2023-01-07T02:06:46.986Z,16.67
2023-01-07T02:09:13.581Z,16.07
2023-01-07T02:11:49.328Z,15.23
2023-01-07T02:14:20.951Z,14.93
2023-01-07T02:17:06.332Z,15.63
2023-01-07T02:19:47.370Z,16.70
2023-01-07T02:22:33.857Z,16.80
2023-01-07T02:25:18.953Z,17.10
2023-01-07T02:28:04.300Z,17.43
2023-01-07T02:30:50.961Z,16.43
2023-01-07T02:33:17.460Z,17.63
2023-01-07T02:35:46.103Z,17.63
2023-01-07T02:38:15.454Z,17.43
2023-01-07T02:40:58.449Z,17.60
2023-01-07T02:43:27.798Z,18.63
2023-01-07T02:46:06.316Z,19.03
2023-01-07T02:48:35.885Z,20.90
2023-01-07T02:51:02.412Z,19.70
2023-01-07T02:53:28.971Z,23.07
2023-01-07T02:56:04.596Z,25.20
2023-01-07T02:58:31.070Z,26.43
2023-01-07T03:00:57.662Z,27.73
2023-01-07T03:03:27.074Z,26.87
2023-01-07T03:06:12.194Z,23.33
2023-01-07T03:08:58.951Z,23.37
2023-01-07T03:11:25.474Z,24.10
2023-01-07T03:13:58.996Z,23.37
2023-01-07T03:16:36.238Z,23.33
2023-01-07T03:19:18.705Z,23.60
2023-01-07T03:21:45.575Z,23.67
2023-01-07T03:24:12.129Z,26.33
2023-01-07T03:26:40.097Z,27.23
2023-01-07T03:29:07.235Z,26.13
2023-01-07T03:31:33.860Z,23.40
2023-01-07T03:34:04.976Z,26.00
2023-01-07T03:36:33.401Z,25.60
2023-01-07T03:38:59.943Z,27.17
2023-01-07T03:41:45.116Z,23.77
2023-01-07T03:44:11.638Z,23.10
2023-01-07T03:46:38.198Z,27.37
2023-01-07T03:49:04.836Z,27.13
2023-01-07T03:51:31.347Z,27.33
2023-01-07T03:53:57.888Z,25.17
2023-01-07T03:56:24.520Z,24.67
2023-01-07T03:58:51.017Z,26.47
2023-01-07T04:01:17.657Z,30.07
2023-01-07T04:03:44.232Z,30.03
2023-01-07T04:06:10.680Z,26.33
2023-01-07T04:08:37.328Z,24.57
2023-01-07T04:11:04.026Z,23.70
2023-01-07T04:13:30.595Z,21.80
2023-01-07T04:15:57.177Z,21.90
2023-01-07T04:18:23.819Z,23.30
2023-01-07T04:20:50.301Z,23.97
2023-01-07T04:23:16.857Z,26.20
2023-01-07T04:25:46.319Z,35.93
2023-01-07T04:28:12.850Z,36.13
2023-01-07T04:30:39.441Z,33.87
2023-01-07T04:33:06.240Z,31.40
2023-01-07T04:35:33.130Z,27.53
2023-01-07T04:37:59.663Z,26.53
2023-01-07T04:40:26.507Z,25.47
2023-01-07T04:42:53.001Z,28.23
2023-01-07T04:45:19.566Z,27.70
2023-01-07T04:47:47.188Z,27.50
2023-01-07T04:50:13.756Z,33.07
2023-01-07T04:52:40.288Z,34.43
2023-01-07T04:55:07.113Z,29.80
2023-01-07T04:57:33.626Z,28.27
2023-01-07T05:00:00.181Z,28.33
2023-01-07T05:02:26.824Z,29.23
2023-01-07T05:04:53.378Z,35.93
2023-01-07T05:07:19.919Z,37.00
2023-01-07T05:09:46.413Z,35.07
2023-01-07T05:12:12.947Z,36.90
2023-01-07T05:14:39.487Z,35.03
2023-01-07T05:17:06.023Z,36.00
2023-01-07T05:19:32.558Z,34.23
2023-01-07T05:22:00.676Z,34.57
2023-01-07T05:24:27.607Z,36.20
2023-01-07T05:26:54.115Z,37.80
2023-01-07T05:29:20.649Z,37.37
2023-01-07T05:31:47.126Z,34.87
2023-01-07T05:34:13.664Z,33.63
2023-01-07T05:36:40.155Z,33.17
2023-01-07T05:39:06.699Z,28.50
2023-01-07T05:41:33.177Z,29.10
2023-01-07T05:43:59.698Z,21.83
2023-01-07T05:46:26.221Z,24.13
2023-01-07T05:48:54.424Z,20.87
2023-01-07T05:51:21.055Z,23.77
2023-01-07T05:53:47.569Z,22.07
2023-01-07T05:56:14.079Z,24.83
2023-01-07T05:58:40.639Z,22.00
2023-01-07T06:01:07.218Z,24.23
2023-01-07T06:03:34.112Z,28.63
2023-01-07T06:06:07.254Z,31.27
2023-01-07T06:08:37.234Z,30.97
2023-01-07T06:11:05.186Z,29.57
2023-01-07T06:13:31.831Z,29.90
2023-01-07T06:16:05.423Z,27.43
2023-01-07T06:18:32.064Z,26.30
2023-01-07T06:20:58.614Z,26.40
2023-01-07T06:23:25.099Z,26.53
2023-01-07T06:25:51.720Z,31.90
2023-01-07T06:28:18.261Z,32.27
2023-01-07T06:30:45.310Z,30.93
2023-01-07T06:33:12.145Z,33.33
2023-01-07T06:35:38.736Z,28.00
2023-01-07T06:38:05.277Z,25.77
2023-01-07T06:40:31.763Z,31.50
2023-01-07T06:42:58.340Z,28.97
2023-01-07T06:45:24.898Z,26.43
2023-01-07T06:47:51.433Z,29.23
2023-01-07T06:50:17.948Z,29.63
2023-01-07T06:52:44.455Z,27.70
2023-01-07T06:55:11.069Z,27.53
2023-01-07T06:57:38.060Z,26.53
2023-01-07T07:00:04.841Z,27.77
2023-01-07T07:02:31.485Z,25.40
2023-01-07T07:04:58.187Z,26.90
2023-01-07T07:07:25.594Z,26.17
2023-01-07T07:09:52.223Z,27.57
2023-01-07T07:12:19.610Z,27.57
2023-01-07T07:14:46.230Z,32.87
2023-01-07T07:17:12.913Z,35.30
2023-01-07T07:19:40.104Z,35.97
2023-01-07T07:22:06.714Z,34.03
2023-01-07T07:24:33.307Z,38.50
2023-01-07T07:27:00.489Z,33.63
2023-01-07T07:29:27.121Z,40.63
2023-01-07T07:31:53.759Z,37.90
2023-01-07T07:34:20.271Z,37.83
2023-01-07T07:36:46.817Z,36.67
2023-01-07T07:39:13.377Z,35.23
2023-01-07T07:41:39.925Z,35.50
2023-01-07T07:44:06.436Z,36.00
2023-01-07T07:46:33.189Z,37.83
2023-01-07T07:48:59.836Z,41.37
2023-01-07T07:51:26.390Z,40.60
2023-01-07T07:53:52.890Z,39.00
2023-01-07T07:56:19.425Z,39.70
2023-01-07T07:58:45.956Z,38.17
2023-01-07T08:01:12.498Z,41.83
2023-01-07T08:03:39.151Z,40.30
2023-01-07T08:06:05.967Z,38.23
2023-01-07T08:08:32.662Z,40.60
2023-01-07T08:10:59.188Z,42.10
2023-01-07T08:13:25.969Z,51.73
2023-01-07T08:15:52.599Z,56.67
2023-01-07T08:18:19.938Z,59.30
2023-01-07T08:20:46.600Z,61.23
2023-01-07T08:23:13.161Z,49.77
2023-01-07T08:25:39.802Z,47.77
2023-01-07T08:28:06.373Z,48.00
2023-01-07T08:30:32.910Z,44.60
2023-01-07T08:32:59.453Z,46.47
2023-01-07T08:35:26.064Z,47.97
2023-01-07T08:37:52.619Z,44.07
2023-01-07T08:40:19.270Z,45.43
2023-01-07T08:42:45.812Z,44.47
2023-01-07T08:45:12.830Z,47.53
2023-01-07T08:47:39.383Z,47.10
2023-01-07T08:50:06.195Z,51.20
2023-01-07T08:52:32.690Z,53.63
2023-01-07T08:54:59.393Z,53.50
2023-01-07T08:57:25.866Z,49.20
2023-01-07T08:59:52.388Z,52.27
2023-01-07T09:02:19.181Z,46.83
2023-01-07T09:04:45.787Z,47.33
2023-01-07T09:07:12.369Z,46.13
2023-01-07T09:09:39.036Z,45.50
2023-01-07T09:12:05.803Z,45.07
2023-01-07T09:14:32.461Z,42.87
2023-01-07T09:16:58.977Z,40.20
2023-01-07T09:19:25.507Z,39.50
2023-01-07T09:21:52.038Z,35.70
2023-01-07T09:24:18.602Z,34.23
2023-01-07T09:26:45.203Z,35.90
2023-01-07T09:29:12.224Z,31.20
2023-01-07T09:31:38.798Z,29.73
2023-01-07T09:34:05.383Z,29.47
2023-01-07T09:36:31.987Z,27.33
2023-01-07T09:38:58.660Z,25.87
2023-01-07T09:41:34.349Z,24.33
2023-01-07T09:44:06.645Z,25.87
2023-01-07T09:46:33.137Z,23.90
2023-01-07T09:49:00.783Z,21.10
2023-01-07T09:51:27.293Z,20.43
2023-01-07T09:53:54.541Z,19.23
2023-01-07T09:56:23.525Z,20.23
2023-01-07T09:58:50.159Z,20.70
2023-01-07T10:01:35.450Z,19.93
2023-01-07T10:04:16.659Z,18.80
2023-01-07T10:06:44.341Z,17.70
2023-01-07T10:09:10.976Z,16.20
2023-01-07T10:11:37.506Z,16.70
2023-01-07T10:14:17.394Z,15.57
2023-01-07T10:16:47.290Z,14.87
2023-01-07T10:19:16.854Z,13.53
2023-01-07T10:21:47.710Z,14.27
2023-01-07T10:24:29.998Z,13.77
2023-01-07T10:26:57.075Z,14.07
2023-01-07T10:29:29.809Z,12.97
2023-01-07T10:31:56.797Z,13.67
2023-01-07T10:34:25.113Z,14.70
2023-01-07T10:37:00.885Z,15.13
2023-01-07T10:39:27.506Z,14.83
2023-01-07T10:42:12.823Z,13.87
2023-01-07T10:44:46.489Z,13.70
2023-01-07T10:47:28.382Z,15.20
2023-01-07T10:49:59.665Z,13.63
2023-01-07T10:52:38.379Z,14.27
2023-01-07T10:55:23.314Z,14.50
2023-01-07T10:57:49.876Z,13.47
2023-01-07T11:00:16.971Z,13.57
2023-01-07T11:02:44.459Z,12.40
2023-01-07T11:05:11.830Z,10.43
2023-01-07T11:07:40.728Z,10.67
2023-01-07T11:10:07.385Z,10.00
2023-01-07T11:12:39.908Z,8.30
2023-01-07T11:15:14.761Z,8.77
2023-01-07T11:17:44.331Z,7.87
2023-01-07T11:20:10.880Z,7.50
2023-01-07T11:22:37.747Z,6.87
2023-01-07T11:25:33.600Z,7.13
2023-01-07T11:28:01.153Z,8.13
2023-01-07T11:30:28.306Z,7.13
2023-01-07T11:33:07.180Z,7.23
2023-01-07T11:35:33.744Z,7.00
2023-01-07T11:38:00.379Z,7.90
2023-01-07T11:40:27.861Z,7.77
2023-01-07T11:42:55.351Z,6.83
2023-01-07T11:45:38.668Z,7.33
2023-01-07T11:48:05.243Z,6.83
2023-01-07T11:50:38.637Z,7.17
2023-01-07T11:53:11.435Z,7.10
2023-01-07T11:55:38.074Z,7.67
2023-01-07T11:58:28.017Z,8.00
2023-01-07T12:01:08.955Z,7.90
2023-01-07T12:03:35.938Z,7.70
2023-01-07T12:06:06.027Z,8.87
2023-01-07T12:08:32.610Z,10.33
2023-01-07T12:11:00.208Z,9.50
2023-01-07T12:13:27.549Z,8.87
2023-01-07T12:15:55.043Z,8.03
2023-01-07T12:18:30.812Z,6.60
2023-01-07T12:21:06.663Z,6.33
2023-01-07T12:23:39.370Z,7.30
2023-01-07T12:26:05.922Z,6.67
2023-01-07T12:28:41.550Z,7.10
2023-01-07T12:31:11.870Z,7.37
2023-01-07T12:34:00.777Z,6.40
2023-01-07T12:36:33.603Z,6.40
2023-01-07T12:39:03.860Z,6.50
2023-01-07T12:41:34.604Z,6.27
2023-01-07T12:44:02.712Z,5.37
2023-01-07T12:46:31.466Z,5.03
2023-01-07T12:49:14.878Z,5.83
2023-01-07T12:51:45.997Z,5.43
2023-01-07T12:54:18.753Z,5.67
2023-01-07T12:56:51.328Z,6.03
2023-01-07T12:59:45.553Z,5.10
2023-01-07T13:02:21.569Z,5.67
2023-01-07T13:05:00.476Z,5.63
2023-01-07T13:07:39.477Z,6.60
2023-01-07T13:10:08.327Z,6.70
2023-01-07T13:12:47.777Z,6.30
2023-01-07T13:15:26.834Z,6.70
2023-01-07T13:17:54.769Z,6.50
2023-01-07T13:20:41.504Z,6.37
2023-01-07T13:23:09.591Z,6.20
2023-01-07T13:25:51.982Z,6.00
2023-01-07T13:28:24.987Z,4.60
2023-01-07T13:31:10.628Z,5.20
2023-01-07T13:33:56.186Z,6.03
2023-01-07T13:36:24.355Z,4.90
2023-01-07T13:39:07.448Z,6.13
2023-01-07T13:41:37.469Z,6.07
2023-01-07T13:44:04.339Z,5.27
2023-01-07T13:46:34.995Z,5.80
2023-01-07T13:49:01.642Z,5.53
2023-01-07T13:51:31.234Z,6.23
2023-01-07T13:54:00.714Z,7.60
2023-01-07T13:56:27.382Z,6.03
2023-01-07T13:58:55.462Z,6.43
2023-01-07T14:01:25.294Z,6.10
2023-01-07T14:03:55.850Z,6.03
2023-01-07T14:06:22.432Z,5.80
2023-01-07T14:08:52.680Z,5.43
2023-01-07T14:11:19.428Z,5.70
2023-01-07T14:14:05.398Z,5.27
2023-01-07T14:16:37.312Z,5.60
2023-01-07T14:19:23.471Z,5.83
2023-01-07T14:22:05.352Z,8.93
2023-01-07T14:24:38.086Z,8.67
2023-01-07T14:27:07.714Z,8.90
2023-01-07T14:29:39.774Z,10.33
2023-01-07T14:32:24.721Z,8.40
2023-01-07T14:35:17.208Z,10.07
2023-01-07T14:37:47.215Z,11.53
2023-01-07T14:40:23.298Z,10.97
2023-01-07T14:42:49.886Z,9.53
2023-01-07T14:45:35.202Z,10.17
2023-01-07T14:48:01.955Z,10.10
2023-01-07T14:50:32.964Z,10.17
2023-01-07T14:53:02.729Z,9.73
2023-01-07T14:55:31.422Z,12.20
2023-01-07T14:58:04.168Z,12.63
2023-01-07T15:00:49.552Z,13.03
2023-01-07T15:03:16.293Z,14.33
2023-01-07T15:05:49.072Z,17.10
2023-01-07T15:08:36.092Z,23.87
2023-01-07T15:11:21.369Z,23.80
2023-01-07T15:14:16.430Z,25.80
2023-01-07T15:16:43.089Z,20.87
2023-01-07T15:19:09.642Z,19.57
2023-01-07T15:21:50.733Z,17.47
2023-01-07T15:24:43.648Z,17.13
2023-01-07T15:27:10.110Z,15.93
2023-01-07T15:29:49.758Z,15.07
2023-01-07T15:32:39.504Z,12.87
2023-01-07T15:35:19.123Z,13.97
2023-01-07T15:37:46.743Z,12.77
2023-01-07T15:40:15.633Z,13.93
2023-01-07T15:42:42.530Z,14.77
2023-01-07T15:45:14.213Z,16.57
2023-01-07T15:47:43.678Z,15.67
2023-01-07T15:50:16.141Z,17.20
2023-01-07T15:52:47.339Z,17.03
2023-01-07T15:55:14.414Z,17.50
2023-01-07T15:57:40.904Z,15.83
2023-01-07T16:00:08.150Z,15.57
2023-01-07T16:02:37.351Z,16.33
2023-01-07T16:05:04.368Z,19.60
2023-01-07T16:07:35.157Z,19.80
2023-01-07T16:10:01.857Z,21.07
2023-01-07T16:12:29.431Z,21.30
2023-01-07T16:14:56.184Z,21.10
2023-01-07T16:17:22.938Z,18.87
2023-01-07T16:19:49.521Z,19.80
2023-01-07T16:22:16.852Z,20.60
2023-01-07T16:24:49.762Z,19.30
2023-01-07T16:27:16.395Z,18.90
2023-01-07T16:29:50.047Z,18.27
2023-01-07T16:32:18.358Z,20.63
2023-01-07T16:34:49.049Z,21.93
2023-01-07T16:37:15.610Z,22.97
2023-01-07T16:39:43.320Z,25.00
2023-01-07T16:42:24.903Z,25.60
2023-01-07T16:44:51.434Z,25.97
2023-01-07T16:47:31.060Z,27.47
2023-01-07T16:49:58.488Z,29.53
2023-01-07T16:52:34.311Z,31.13
2023-01-07T16:55:00.877Z,31.67
2023-01-07T16:57:30.693Z,30.63
2023-01-07T16:59:57.901Z,28.20
2023-01-07T17:02:48.753Z,30.60
2023-01-07T17:05:18.917Z,30.43
2023-01-07T17:07:46.947Z,31.43
2023-01-07T17:10:22.793Z,31.07
2023-01-07T17:12:56.396Z,32.27
2023-01-07T17:15:41.637Z,39.03
2023-01-07T17:18:11.584Z,40.63
2023-01-07T17:20:44.842Z,37.30
2023-01-07T17:23:26.668Z,34.87
2023-01-07T17:25:56.282Z,30.97
2023-01-07T17:28:25.244Z,25.00
2023-01-07T17:30:52.053Z,27.23
2023-01-07T17:33:19.360Z,25.93
2023-01-07T17:35:46.479Z,26.47
2023-01-07T17:38:13.619Z,24.10
2023-01-07T17:40:40.361Z,23.80
2023-01-07T17:43:25.721Z,24.50
2023-01-07T17:45:52.282Z,24.57
2023-01-07T17:48:18.827Z,25.77
2023-01-07T17:50:45.334Z,24.80
2023-01-07T17:53:30.820Z,25.73
2023-01-07T17:55:57.297Z,25.13
2023-01-07T17:58:27.586Z,26.40
2023-01-07T18:00:54.281Z,25.77
2023-01-07T18:03:21.328Z,23.30
2023-01-07T18:05:47.809Z,23.20
2023-01-07T18:08:14.454Z,22.97
2023-01-07T18:10:59.609Z,23.80
2023-01-07T18:13:26.664Z,23.67
2023-01-07T18:15:53.226Z,24.47
2023-01-07T18:18:19.927Z,22.57
2023-01-07T18:20:46.675Z,23.67
2023-01-07T18:23:13.267Z,24.70
2023-01-07T18:25:39.787Z,27.57
2023-01-07T18:28:06.343Z,27.47
2023-01-07T18:30:38.877Z,28.27
2023-01-07T18:33:07.769Z,28.60
2023-01-07T18:35:34.598Z,25.67
2023-01-07T18:38:04.797Z,25.73
2023-01-07T18:40:33.672Z,26.43
2023-01-07T18:43:01.101Z,29.07
2023-01-07T18:45:27.708Z,32.17
2023-01-07T18:47:54.212Z,35.73
2023-01-07T18:50:20.859Z,29.83
2023-01-07T18:52:47.389Z,29.70
2023-01-07T18:55:16.205Z,27.60
2023-01-07T18:57:42.750Z,31.47
2023-01-07T19:00:09.606Z,31.43
2023-01-07T19:02:36.147Z,30.17
2023-01-07T19:05:02.725Z,32.27
2023-01-07T19:07:29.384Z,40.60
2023-01-07T19:09:55.949Z,45.60
2023-01-07T19:12:22.483Z,43.77
2023-01-07T19:14:49.022Z,39.40
2023-01-07T19:17:15.571Z,39.60
2023-01-07T19:19:48.461Z,39.63
2023-01-07T19:22:16.267Z,39.07
2023-01-07T19:24:43.002Z,40.23
2023-01-07T19:27:09.585Z,44.33
2023-01-07T19:29:36.184Z,42.13
2023-01-07T19:32:02.832Z,45.23
2023-01-07T19:34:29.641Z,48.13
2023-01-07T19:36:56.307Z,48.60
2023-01-07T19:39:23.177Z,47.83
2023-01-07T19:41:49.960Z,50.10
2023-01-07T19:44:16.723Z,50.47
2023-01-07T19:46:44.163Z,46.03
2023-01-07T19:49:10.815Z,49.13
2023-01-07T19:51:38.534Z,47.07
2023-01-07T19:54:05.294Z,49.63
2023-01-07T19:56:31.899Z,47.37
2023-01-07T19:58:58.604Z,46.40
2023-01-07T20:01:26.808Z,47.03
2023-01-07T20:03:53.701Z,50.33
2023-01-07T20:06:21.104Z,49.23
2023-01-07T20:08:47.858Z,53.07
2023-01-07T20:11:14.634Z,50.40
2023-01-07T20:13:41.215Z,50.93
2023-01-07T20:16:08.695Z,51.73
2023-01-07T20:18:38.779Z,49.83
2023-01-07T20:21:05.444Z,54.83
2023-01-07T20:23:32.269Z,55.17
2023-01-07T20:26:00.239Z,54.93
2023-01-07T20:28:26.823Z,60.73
2023-01-07T20:30:53.338Z,60.23
2023-01-07T20:33:19.828Z,61.30
2023-01-07T20:35:46.762Z,62.47
2023-01-07T20:38:13.620Z,58.53
2023-01-07T20:40:40.486Z,59.93
2023-01-07T20:43:07.274Z,59.10
2023-01-07T20:45:35.706Z,59.33
2023-01-07T20:48:04.403Z,59.63
2023-01-07T20:50:32.133Z,58.27
2023-01-07T20:52:58.661Z,58.53
2023-01-07T20:55:25.387Z,58.63
2023-01-07T20:57:52.021Z,55.33
2023-01-07T21:00:18.590Z,56.67
2023-01-07T21:02:45.143Z,56.17
2023-01-07T21:05:11.710Z,52.73
2023-01-07T21:07:38.260Z,52.37
2023-01-07T21:10:04.983Z,52.97
2023-01-07T21:12:31.555Z,54.83
2023-01-07T21:14:58.042Z,66.27
2023-01-07T21:17:24.531Z,57.53
2023-01-07T21:19:51.033Z,56.53
2023-01-07T21:22:17.600Z,52.10
2023-01-07T21:24:44.154Z,53.90
2023-01-07T21:27:10.680Z,51.27
2023-01-07T21:29:37.209Z,52.63
2023-01-07T21:32:04.360Z,47.33
2023-01-07T21:34:30.988Z,46.43
2023-01-07T21:36:57.516Z,50.80
2023-01-07T21:39:24.180Z,53.47
2023-01-07T21:41:50.721Z,52.57
2023-01-07T21:44:17.456Z,53.10
2023-01-07T21:46:43.968Z,54.67
2023-01-07T21:49:10.691Z,51.83
2023-01-07T21:51:37.220Z,51.50
2023-01-07T21:54:03.811Z,46.77
2023-01-07T21:56:32.825Z,47.37
2023-01-07T21:58:59.754Z,45.40
2023-01-07T22:01:28.887Z,43.67
2023-01-07T22:03:56.370Z,45.07
2023-01-07T22:06:23.927Z,47.40
2023-01-07T22:08:53.375Z,47.17
2023-01-07T22:11:19.858Z,43.70
2023-01-07T22:13:49.791Z,42.57
2023-01-07T22:16:16.311Z,47.17
2023-01-07T22:18:42.887Z,42.23
2023-01-07T22:21:09.480Z,43.80
2023-01-07T22:23:37.381Z,43.00
2023-01-07T22:26:04.451Z,42.27
2023-01-07T22:28:31.454Z,42.67
2023-01-07T22:30:57.995Z,41.87
2023-01-07T22:33:24.640Z,39.37
2023-01-07T22:35:51.315Z,41.63
2023-01-07T22:38:18.003Z,39.90
2023-01-07T22:40:44.545Z,37.97
2023-01-07T22:43:12.346Z,38.80
2023-01-07T22:45:43.270Z,36.00
2023-01-07T22:48:10.806Z,36.37
2023-01-07T22:50:37.367Z,35.67
2023-01-07T22:53:03.825Z,34.50
2023-01-07T22:55:30.364Z,32.77
2023-01-07T22:57:56.902Z,31.60
2023-01-07T23:00:46.879Z,31.07
2023-01-07T23:03:13.610Z,27.20
2023-01-07T23:05:40.332Z,26.83
2023-01-07T23:08:07.127Z,27.27
2023-01-07T23:10:33.643Z,27.17
2023-01-07T23:13:00.287Z,26.33
2023-01-07T23:15:26.887Z,25.73
2023-01-07T23:17:53.440Z,25.23
2023-01-07T23:20:19.956Z,25.83
2023-01-07T23:22:46.778Z,23.90
2023-01-07T23:25:13.384Z,23.40
2023-01-07T23:27:39.965Z,22.80
2023-01-07T23:30:06.877Z,23.30
2023-01-07T23:32:33.425Z,22.93
2023-01-07T23:34:59.945Z,21.97
2023-01-07T23:37:26.463Z,22.50
2023-01-07T23:39:52.955Z,21.30
2023-01-07T23:42:19.532Z,22.10
2023-01-07T23:44:46.070Z,22.17
2023-01-07T23:47:12.561Z,21.83
2023-01-07T23:49:39.359Z,24.10
2023-01-07T23:52:05.910Z,22.27
2023-01-07T23:54:32.445Z,21.97
2023-01-07T23:56:58.975Z,21.50
2023-01-07T23:59:25.519Z,23.53
